Time;durP1;ratioP1;P1;durP2;ratioP2;P2;SDS_P1;SDS_P2;PMS_P1;PMS_P2;Temp;Humidity;BMP_temperature;BMP_pressure;BME280_temperature;BME280_humidity;BME280_pressure;Samples;Min_cycle;Max_cycle;Signal;HPM_P1;HPM_P2
2023/07/19 00:00:38;;;;;;;9.55;4.00;;;;;;;24.27;66.16;94979.88;5027811;28;20177;-85
2023/07/19 00:03:04;;;;;;;5.70;4.30;;;;;;;24.49;66.47;95000.78;5023352;28;20609;-85
2023/07/19 00:05:29;;;;;;;6.03;3.92;;;;;;;24.54;67.12;95006.91;5009808;28;20630;-85
2023/07/19 00:07:55;;;;;;;17.55;9.85;;;;;;;24.37;67.33;94979.72;5027533;28;20638;-85
2023/07/19 00:10:21;;;;;;;25.95;14.45;;;;;;;24.30;66.86;94966.63;5024830;28;20175;-85
2023/07/19 00:12:46;;;;;;;8.52;4.97;;;;;;;24.29;66.65;94978.50;5021251;28;20580;-85
2023/07/19 00:15:12;;;;;;;14.45;8.13;;;;;;;24.17;66.81;94961.19;5028915;28;20175;-85
2023/07/19 00:17:37;;;;;;;10.50;6.35;;;;;;;24.19;67.17;94972.44;5027217;28;20179;-85
2023/07/19 00:20:03;;;;;;;8.27;4.93;;;;;;;24.17;67.41;94969.25;5028250;28;20195;-85
2023/07/19 00:22:28;;;;;;;7.07;4.93;;;;;;;24.23;67.38;94978.84;5027211;28;20554;-85
2023/07/19 00:24:54;;;;;;;7.68;5.45;;;;;;;24.24;67.22;94986.66;5028588;28;20238;-85
2023/07/19 00:27:19;;;;;;;8.55;5.95;;;;;;;24.28;67.98;95006.50;5029077;28;20190;-85
2023/07/19 00:29:44;;;;;;;8.25;5.57;;;;;;;24.26;68.45;95006.00;5026225;28;20168;-85
2023/07/19 00:32:10;;;;;;;8.40;5.05;;;;;;;24.22;68.60;95004.16;5020413;28;20216;-85
2023/07/19 00:34:35;;;;;;;6.35;4.18;;;;;;;24.07;68.33;94986.34;5022056;28;20695;-84
2023/07/19 00:37:01;;;;;;;10.43;4.47;;;;;;;24.12;68.14;95009.69;5021725;28;20627;-84
2023/07/19 00:39:27;;;;;;;7.85;5.40;;;;;;;23.99;68.23;95017.38;5024160;28;20192;-84
2023/07/19 00:41:53;;;;;;;10.50;5.82;;;;;;;23.68;68.49;94994.72;5025594;28;20254;-84
2023/07/19 00:44:18;;;;;;;9.20;4.40;;;;;;;23.73;69.01;95012.66;5023335;28;20161;-84
2023/07/19 00:46:44;;;;;;;8.25;4.95;;;;;;;23.50;69.40;94977.47;5023172;28;20179;-84
2023/07/19 00:49:10;;;;;;;8.13;4.82;;;;;;;23.39;69.77;94954.47;5023188;28;20185;-84
2023/07/19 00:51:36;;;;;;;6.85;4.78;;;;;;;23.45;69.58;94957.88;5022885;28;20168;-84
2023/07/19 00:54:03;;;;;;;7.82;5.40;;;;;;;23.66;69.63;94986.94;5013841;28;20179;-85
2023/07/19 00:56:29;;;;;;;8.75;4.82;;;;;;;23.61;69.13;94976.22;5015251;28;20183;-84
2023/07/19 00:58:54;;;;;;;7.22;4.63;;;;;;;23.63;69.71;94987.50;5026264;28;20168;-85
2023/07/19 01:01:22;;;;;;;9.85;4.57;;;;;;;23.79;70.05;95016.88;5006394;28;20175;-84
2023/07/19 01:03:47;;;;;;;8.10;5.18;;;;;;;23.59;69.84;94985.69;5022440;28;20183;-84
2023/07/19 01:06:13;;;;;;;8.38;4.72;;;;;;;23.51;69.44;94973.69;5022808;28;20184;-84
2023/07/19 01:08:38;;;;;;;6.25;4.45;;;;;;;23.60;70.29;94996.16;5016459;28;20178;-84
2023/07/19 01:11:04;;;;;;;8.30;4.72;;;;;;;23.53;69.90;94987.63;5025953;28;20175;-84
2023/07/19 01:13:29;;;;;;;9.20;5.10;;;;;;;23.43;70.09;94968.94;5008230;28;20271;-84
2023/07/19 01:15:55;;;;;;;8.80;4.88;;;;;;;23.59;70.06;95004.50;5026011;28;20232;-84
2023/07/19 01:18:20;;;;;;;11.52;5.38;;;;;;;23.37;70.61;94961.19;5017622;28;20215;-85
2023/07/19 01:20:46;;;;;;;8.27;4.93;;;;;;;23.59;70.06;94999.13;5026055;28;20172;-84
2023/07/19 01:23:12;;;;;;;7.95;5.00;;;;;;;23.62;70.32;94993.16;5025775;28;20160;-84
2023/07/19 01:25:37;;;;;;;8.55;4.55;;;;;;;23.52;70.38;94978.00;5008347;28;20181;-84
2023/07/19 01:28:03;;;;;;;9.05;5.05;;;;;;;23.63;70.61;94995.56;5025698;28;20178;-84
2023/07/19 01:30:29;;;;;;;11.32;5.18;;;;;;;23.54;70.11;94989.22;5025570;28;20201;-84
2023/07/19 01:32:54;;;;;;;11.23;5.82;;;;;;;22.89;70.61;94878.81;5025434;28;20241;-86
2023/07/19 01:35:20;;;;;;;9.35;4.80;;;;;;;23.32;70.14;94951.34;5010435;28;20187;-87
2023/07/19 01:37:46;;;;;;;8.30;4.68;;;;;;;23.54;70.29;94977.69;5022595;28;20175;-88
2023/07/19 01:40:12;;;;;;;8.20;4.68;;;;;;;23.42;70.39;94974.59;5022250;28;20176;-87
2023/07/19 01:42:39;;;;;;;6.93;4.90;;;;;;;23.31;70.48;94963.97;5030538;28;20226;-88
2023/07/19 01:45:04;;;;;;;6.13;4.30;;;;;;;23.30;70.04;94967.75;5006292;28;20167;-88
2023/07/19 01:47:30;;;;;;;8.35;4.90;;;;;;;23.29;70.56;94959.97;5007263;28;20172;-87
2023/07/19 01:49:55;;;;;;;5.57;4.25;;;;;;;23.25;70.51;94969.69;5021643;28;20675;-87
2023/07/19 01:52:21;;;;;;;9.82;4.03;;;;;;;23.23;70.59;94969.19;5020584;28;20207;-87
2023/07/19 01:54:47;;;;;;;7.13;4.38;;;;;;;23.24;71.22;94971.59;5009107;28;20180;-87
2023/07/19 01:57:12;;;;;;;9.70;4.70;;;;;;;23.34;71.39;94984.09;5025521;28;20203;-87
2023/07/19 01:59:37;;;;;;;7.55;4.57;;;;;;;23.41;71.12;94991.81;5027057;28;20243;-87
2023/07/19 02:02:03;;;;;;;9.07;4.82;;;;;;;23.35;70.94;94990.28;5023214;28;20165;-87
2023/07/19 02:04:29;;;;;;;10.15;4.25;;;;;;;23.35;71.10;94999.13;5023538;28;20780;-87
2023/07/19 02:06:55;;;;;;;8.63;4.68;;;;;;;23.08;70.93;94967.47;5024976;28;20187;-87
2023/07/19 02:09:21;;;;;;;10.45;4.65;;;;;;;23.06;71.30;94966.16;5016646;28;20294;-87
2023/07/19 02:11:46;;;;;;;9.05;4.50;;;;;;;23.19;71.58;94984.25;5013656;28;20686;-87
2023/07/19 02:14:12;;;;;;;9.02;4.32;;;;;;;23.03;72.05;94958.66;5023316;28;20187;-87
2023/07/19 02:16:38;;;;;;;7.40;4.55;;;;;;;23.08;71.89;94967.47;5000514;28;20656;-86
2023/07/19 02:19:05;;;;;;;6.85;4.20;;;;;;;23.10;71.72;94972.53;5011882;28;20719;-86
2023/07/19 02:21:31;;;;;;;11.25;5.35;;;;;;;23.00;72.17;94949.31;5024638;28;20180;-86
2023/07/19 02:23:57;;;;;;;7.15;4.20;;;;;;;22.99;72.04;94949.59;5005626;28;20177;-86
2023/07/19 02:26:23;;;;;;;6.97;4.55;;;;;;;22.91;72.16;94934.91;5021225;28;20635;-86
2023/07/19 02:28:48;;;;;;;8.00;4.25;;;;;;;22.78;71.90;94920.28;5019761;28;20267;-88
2023/07/19 02:31:14;;;;;;;7.65;4.93;;;;;;;22.93;72.35;94944.25;5000804;28;20176;-87
2023/07/19 02:33:39;;;;;;;9.15;4.95;;;;;;;22.69;72.31;94913.09;5032410;28;20996;-87
2023/07/19 02:36:05;;;;;;;12.32;5.40;;;;;;;22.16;72.47;94832.63;5024523;28;20168;-87
2023/07/19 02:38:30;;;;;;;12.77;5.35;;;;;;;22.70;72.61;94922.75;5023015;28;20262;-87
2023/07/19 02:41:00;;;;;;;9.15;4.88;;;;;;;22.82;72.43;94961.59;5017439;28;20160;-88
2023/07/19 02:43:26;;;;;;;10.02;4.80;;;;;;;22.75;73.16;94953.03;5024321;28;20197;-82
2023/07/19 02:45:52;;;;;;;8.60;4.20;;;;;;;22.72;73.04;94950.91;5021033;28;20183;-82
2023/07/19 02:48:18;;;;;;;9.02;4.70;;;;;;;22.63;73.16;94933.84;5013168;28;20686;-82
2023/07/19 02:50:47;;;;;;;8.05;4.82;;;;;;;22.82;73.36;94963.47;5023169;28;20176;-82
2023/07/19 02:53:13;;;;;;;8.55;4.93;;;;;;;22.82;73.30;94958.09;5018509;28;20200;-82
2023/07/19 02:55:39;;;;;;;11.50;4.68;;;;;;;22.58;72.91;94934.66;5021423;28;20176;-82
2023/07/19 02:58:05;;;;;;;17.27;4.15;;;;;;;22.76;72.79;94962.69;5020293;28;20197;-82
2023/07/19 03:00:30;;;;;;;8.52;4.95;;;;;;;22.76;72.58;94957.34;5020724;28;20211;-82
2023/07/19 03:02:56;;;;;;;7.93;4.78;;;;;;;22.58;72.58;94934.66;5022852;28;20553;-82
2023/07/19 03:05:25;;;;;;;11.35;5.10;;;;;;;22.69;72.97;94948.78;5024028;28;20199;-82
2023/07/19 03:07:50;;;;;;;10.70;5.13;;;;;;;22.50;72.53;94931.81;5022997;28;20195;-82
2023/07/19 03:10:16;;;;;;;19.55;6.18;;;;;;;22.73;72.92;94962.47;5020334;28;20168;-82
2023/07/19 03:12:42;;;;;;;12.15;5.45;;;;;;;22.64;72.44;94956.09;5020082;28;20211;-82
2023/07/19 03:15:08;;;;;;;10.48;5.03;;;;;;;22.53;73.14;94941.97;5021538;28;20164;-82
2023/07/19 03:17:33;;;;;;;14.93;5.75;;;;;;;22.48;73.26;94944.72;5020364;28;20590;-82
2023/07/19 03:19:59;;;;;;;14.77;8.98;;;;;;;22.47;73.47;94943.91;5020780;28;20164;-82
2023/07/19 03:22:24;;;;;;;11.07;6.15;;;;;;;22.51;72.89;94952.19;5028381;28;20168;-82
2023/07/19 03:24:50;;;;;;;15.85;7.90;;;;;;;22.56;73.06;94961.00;5021904;28;20181;-82
2023/07/19 03:27:15;;;;;;;16.83;7.65;;;;;;;22.47;72.91;94948.50;5025186;28;20191;-82
2023/07/19 03:29:41;;;;;;;12.68;6.00;;;;;;;22.33;72.89;94918.81;5020447;28;20179;-82
2023/07/19 03:32:07;;;;;;;12.57;6.53;;;;;;;22.53;73.21;94950.03;5026902;28;20294;-82
2023/07/19 03:34:32;;;;;;;10.48;6.82;;;;;;;22.58;73.04;94941.91;5023721;28;20178;-82
2023/07/19 03:36:58;;;;;;;9.73;6.68;;;;;;;22.61;72.74;94943.25;5021868;28;20167;-82
2023/07/19 03:39:24;;;;;;;12.23;7.88;;;;;;;22.63;71.54;94935.72;5025930;28;20168;-83
2023/07/19 03:41:49;;;;;;;22.20;11.52;;;;;;;22.52;71.35;94919.72;5014889;28;20243;-83
2023/07/19 03:44:14;;;;;;;9.10;6.30;;;;;;;22.53;71.78;94924.00;5014696;28;20230;-83
2023/07/19 03:46:40;;;;;;;13.80;9.57;;;;;;;22.69;71.88;94938.06;5025432;28;20179;-80
2023/07/19 03:49:05;;;;;;;14.77;6.63;;;;;;;22.50;71.74;94873.56;5021500;28;20536;-81
2023/07/19 03:51:30;;;;;;;8.00;5.63;;;;;;;22.89;71.42;94919.06;5022576;28;20200;-81
2023/07/19 03:53:56;;;;;;;17.48;8.65;;;;;;;23.03;71.42;94918.38;5020551;28;20296;-81
2023/07/19 03:56:21;;;;;;;14.13;8.93;;;;;;;23.23;70.92;94923.50;5022737;28;20180;-81
2023/07/19 03:58:49;;;;;;;12.60;7.60;;;;;;;23.38;70.79;94920.63;5014832;28;20260;-81
2023/07/19 04:01:15;;;;;;;16.88;7.50;;;;;;;23.51;70.21;94928.00;5021671;28;20161;-80
2023/07/19 04:03:41;;;;;;;11.15;6.80;;;;;;;23.50;69.35;94910.28;5021839;28;20180;-80
2023/07/19 04:06:07;;;;;;;7.70;4.95;;;;;;;23.77;69.67;94931.13;5022813;28;20179;-80
2023/07/19 04:08:33;;;;;;;17.65;8.18;;;;;;;23.86;69.27;94936.66;5023294;28;20175;-80
2023/07/19 04:10:59;;;;;;;12.93;7.57;;;;;;;24.06;68.60;94930.94;5026634;28;20177;-80
2023/07/19 04:13:26;;;;;;;15.30;7.53;;;;;;;24.06;68.46;94904.84;5022548;28;20192;-80
2023/07/19 04:15:52;;;;;;;22.77;12.55;;;;;;;24.20;66.79;94910.28;5016489;28;20171;-80
2023/07/19 04:18:17;;;;;;;11.65;5.95;;;;;;;24.31;66.31;94913.59;5021814;28;20259;-80
2023/07/19 04:20:43;;;;;;;12.18;5.47;;;;;;;24.39;66.22;94907.53;5024412;28;20176;-80
2023/07/19 04:23:08;;;;;;;15.15;6.18;;;;;;;24.59;65.87;94901.00;5021123;28;20192;-81
2023/07/19 04:25:34;;;;;;;13.95;6.30;;;;;;;24.76;66.94;94893.13;5001692;28;20626;-82
2023/07/19 04:27:59;;;;;;;15.60;5.72;;;;;;;25.05;65.91;94914.44;5020263;28;20180;-82
2023/07/19 04:30:24;;;;;;;13.02;5.82;;;;;;;25.10;64.23;94900.84;5018606;28;20217;-82
2023/07/19 04:32:54;;;;;;;13.48;5.20;;;;;;;25.19;65.60;94889.06;5021608;28;20227;-85
2023/07/19 04:35:21;;;;;;;13.70;7.05;;;;;;;25.55;64.49;94924.16;5018785;28;20254;-85
2023/07/19 04:37:46;;;;;;;12.05;5.10;;;;;;;25.74;63.10;94921.34;5023066;28;20178;-85
2023/07/19 04:40:11;;;;;;;10.32;6.32;;;;;;;25.70;62.62;94879.88;5024642;28;20602;-84
2023/07/19 04:42:37;;;;;;;12.13;5.32;;;;;;;26.04;63.13;94902.81;5023342;28;20164;-85
2023/07/19 04:45:03;;;;;;;12.00;6.28;;;;;;;26.39;63.33;94920.88;5023238;28;20556;-85
2023/07/19 04:47:29;;;;;;;16.80;6.97;;;;;;;26.57;64.13;94925.28;5024857;28;20200;-85
2023/07/19 04:49:55;;;;;;;18.13;5.75;;;;;;;26.52;63.22;94887.59;5029646;28;20632;-85
2023/07/19 04:52:20;;;;;;;18.67;7.00;;;;;;;26.83;61.27;94905.69;5023096;28;20200;-85
2023/07/19 04:54:48;;;;;;;10.30;6.40;;;;;;;27.17;60.49;94927.47;5031409;28;20181;-85
2023/07/19 04:57:15;;;;;;;12.93;8.10;;;;;;;27.08;61.10;94883.38;5005381;28;20559;-85
2023/07/19 04:59:40;;;;;;;25.60;13.88;;;;;;;27.20;59.66;94897.09;5023738;28;20208;-85
2023/07/19 05:02:07;;;;;;;16.73;7.50;;;;;;;27.49;59.21;94906.56;5026166;28;20206;-85
2023/07/19 05:04:33;;;;;;;19.85;13.02;;;;;;;27.61;58.73;94909.44;5026155;28;20164;-86
2023/07/19 05:06:58;;;;;;;15.85;9.52;;;;;;;27.94;58.09;94931.44;5026079;28;20180;-86
2023/07/19 05:09:24;;;;;;;18.52;7.57;;;;;;;27.79;58.48;94898.31;5025928;28;20184;-85
2023/07/19 05:11:49;;;;;;;10.52;5.85;;;;;;;28.07;57.80;94917.75;5024036;28;20563;-81
2023/07/19 05:14:15;;;;;;;24.90;9.68;;;;;;;28.22;57.62;94921.91;5019958;28;20550;-82
2023/07/19 05:16:40;;;;;;;12.60;6.95;;;;;;;28.40;57.94;94936.22;5022635;28;20620;-82
2023/07/19 05:19:06;;;;;;;27.50;6.63;;;;;;;28.48;56.50;94938.91;5023155;28;20172;-83
2023/07/19 05:21:31;;;;;;;15.73;6.10;;;;;;;28.55;57.02;94930.28;5012023;28;20659;-83
2023/07/19 05:23:57;;;;;;;17.52;6.40;;;;;;;28.69;57.34;94930.91;5022480;28;20180;-83
2023/07/19 05:26:24;;;;;;;12.93;6.72;;;;;;;28.91;56.73;94932.63;5020996;28;20207;-83
2023/07/19 05:28:49;;;;;;;11.77;5.80;;;;;;;29.08;53.64;94921.69;5020761;28;20184;-83
2023/07/19 05:31:15;;;;;;;10.90;6.10;;;;;;;29.18;53.09;94915.91;5020486;28;20172;-83
2023/07/19 05:33:40;;;;;;;19.83;6.60;;;;;;;29.29;53.46;94921.75;5020503;28;20734;-83
2023/07/19 05:36:06;;;;;;;16.27;8.02;;;;;;;29.42;53.96;94920.75;5024557;28;20186;-83
2023/07/19 05:38:32;;;;;;;13.63;6.90;;;;;;;29.38;53.85;94891.91;5023709;28;20290;-83
2023/07/19 05:41:02;;;;;;;15.77;6.95;;;;;;;29.70;53.76;94906.69;5018637;28;20255;-83
2023/07/19 05:43:28;;;;;;;12.90;6.10;;;;;;;29.87;54.83;94915.50;5014732;28;20569;-83
2023/07/19 05:45:53;;;;;;;11.13;5.78;;;;;;;29.99;50.65;94914.81;5020777;28;20677;-83
2023/07/19 05:48:19;;;;;;;12.13;6.40;;;;;;;29.84;51.52;94896.38;5023350;28;20171;-83
2023/07/19 05:50:44;;;;;;;22.85;6.55;;;;;;;29.88;52.76;94905.44;5021456;28;20173;-83
2023/07/19 05:53:10;;;;;;;12.75;6.05;;;;;;;29.98;49.91;94873.28;5021769;28;20295;-83
2023/07/19 05:55:36;;;;;;;20.38;7.90;;;;;;;30.41;51.26;94912.84;5024965;28;20187;-83
2023/07/19 05:58:01;;;;;;;11.40;6.07;;;;;;;30.33;49.08;94883.81;5025054;28;20306;-83
2023/07/19 06:00:29;;;;;;;10.38;5.75;;;;;;;30.27;48.40;94874.31;5023466;28;20541;-83
2023/07/19 06:02:55;;;;;;;15.90;6.70;;;;;;;30.41;50.16;94874.00;5021795;28;20165;-83
2023/07/19 06:05:23;;;;;;;9.25;5.30;;;;;;;30.78;47.75;94913.75;5029257;28;20712;-83
2023/07/19 06:07:48;;;;;;;9.68;5.45;;;;;;;31.02;47.50;94919.22;5013551;28;20208;-83
2023/07/19 06:10:14;;;;;;;13.13;5.25;;;;;;;31.13;47.89;94894.31;5024477;28;20638;-84
2023/07/19 06:12:42;;;;;;;10.13;5.28;;;;;;;31.05;45.05;94888.59;5021604;28;20210;-83
2023/07/19 06:15:08;;;;;;;106.95;25.20;;;;;;;31.20;45.27;94913.59;5021370;28;20173;-83
2023/07/19 06:17:34;;;;;;;12.80;6.55;;;;;;;30.97;46.55;94914.00;5021327;28;20195;-83
2023/07/19 06:20:00;;;;;;;34.40;6.93;;;;;;;30.95;46.85;94915.47;5023741;28;20218;-84
2023/07/19 06:22:25;;;;;;;12.60;5.97;;;;;;;31.13;46.63;94907.94;5024447;28;20167;-84
2023/07/19 06:24:51;;;;;;;9.45;5.35;;;;;;;31.19;46.09;94917.44;5004923;28;20194;-84
2023/07/19 06:27:16;;;;;;;13.00;5.88;;;;;;;31.12;45.73;94909.84;5021025;28;20180;-84
2023/07/19 06:29:43;;;;;;;207.60;45.55;;;;;;;31.30;46.30;94913.16;5021503;28;20240;-82
2023/07/19 06:32:08;;;;;;;241.75;49.50;;;;;;;31.71;48.30;94914.84;5029044;28;20224;-83
2023/07/19 06:34:34;;;;;;;19.00;6.22;;;;;;;31.98;46.99;94916.03;5010117;28;20191;-82
2023/07/19 06:36:59;;;;;;;29.75;9.25;;;;;;;32.31;47.07;94907.63;5024434;28;20261;-81
2023/07/19 06:39:25;;;;;;;41.60;9.07;;;;;;;32.53;46.23;94912.53;5024578;28;20176;-82
2023/07/19 06:41:50;;;;;;;57.40;15.35;;;;;;;32.70;44.16;94911.44;5024227;28;20180;-83
2023/07/19 06:44:16;;;;;;;16.20;6.15;;;;;;;32.90;46.38;94899.50;5021126;28;20231;-81
2023/07/19 06:46:41;;;;;;;10.45;5.55;;;;;;;33.23;45.96;94912.81;5021099;28;20184;-84
2023/07/19 06:49:07;;;;;;;9.50;5.75;;;;;;;33.42;44.36;94903.91;5022148;28;20263;-84
2023/07/19 06:51:33;;;;;;;17.33;5.60;;;;;;;33.51;44.44;94886.19;5029587;28;20229;-81
2023/07/19 06:53:58;;;;;;;12.40;6.45;;;;;;;33.69;44.84;94909.22;5021048;28;20204;-82
2023/07/19 06:56:23;;;;;;;8.25;4.88;;;;;;;33.68;43.88;94907.63;5021149;28;20194;-82
2023/07/19 06:58:49;;;;;;;17.25;6.85;;;;;;;33.72;42.12;94907.72;5026240;28;20176;-84
2023/07/19 07:01:14;;;;;;;13.25;4.82;;;;;;;33.87;43.69;94917.06;5023982;28;20255;-83
2023/07/19 07:03:40;;;;;;;8.55;4.57;;;;;;;34.13;42.50;94916.44;5023104;28;20176;-84
2023/07/19 07:06:05;;;;;;;6.90;5.20;;;;;;;33.96;43.19;94882.91;5001821;28;20710;-87
2023/07/19 07:08:31;;;;;;;7.93;4.57;;;;;;;34.06;43.16;94903.41;4997688;28;20191;-84
2023/07/19 07:10:59;;;;;;;13.95;5.90;;;;;;;34.03;42.37;94898.66;5018888;28;20646;-83
2023/07/19 07:13:25;;;;;;;10.60;5.40;;;;;;;34.03;42.94;94880.31;5012268;28;20208;-86
2023/07/19 07:15:51;;;;;;;55.75;8.02;;;;;;;34.17;40.03;94898.94;5012938;28;20322;-84
2023/07/19 07:18:17;;;;;;;9.13;4.00;;;;;;;34.33;41.29;94913.38;5024848;28;20195;-85
2023/07/19 07:20:42;;;;;;;6.25;4.00;;;;;;;34.08;40.54;94857.34;5018520;28;20649;-85
2023/07/19 07:23:08;;;;;;;9.25;4.38;;;;;;;34.29;39.48;94871.47;5019591;28;20173;-83
2023/07/19 07:25:33;;;;;;;5.97;4.15;;;;;;;34.58;39.64;94908.38;5015090;28;20196;-84
2023/07/19 07:27:59;;;;;;;9.43;4.85;;;;;;;34.67;40.08;94908.16;5012412;28;20173;-85
2023/07/19 07:30:25;;;;;;;15.20;4.50;;;;;;;34.78;40.59;94893.53;4994804;28;20175;-82
2023/07/19 07:32:51;;;;;;;12.07;7.25;;;;;;;35.05;41.26;94908.06;5012258;28;20231;-82
2023/07/19 07:35:16;;;;;;;18.25;4.80;;;;;;;35.08;38.94;94901.06;5012840;28;20223;-83
2023/07/19 07:37:41;;;;;;;6.47;4.45;;;;;;;35.19;38.78;94896.56;5012357;28;20168;-83
2023/07/19 07:40:08;;;;;;;9.95;5.15;;;;;;;35.41;41.13;94894.97;5012946;28;20172;-78
2023/07/19 07:42:34;;;;;;;10.05;5.03;;;;;;;35.58;40.16;94886.22;5012272;28;20590;-83
2023/07/19 07:44:59;;;;;;;8.65;4.75;;;;;;;35.58;37.30;94869.78;5012440;28;20176;-82
2023/07/19 07:47:25;;;;;;;7.40;4.88;;;;;;;35.61;38.84;94880.03;5012375;28;20163;-82
2023/07/19 07:49:51;;;;;;;8.32;4.57;;;;;;;35.48;37.48;94859.47;4994592;28;20187;-83
2023/07/19 07:52:17;;;;;;;15.82;4.78;;;;;;;35.49;39.22;94881.03;5012291;28;20200;-83
2023/07/19 07:54:44;;;;;;;5.85;3.97;;;;;;;35.54;39.66;94864.28;5012421;28;20643;-83
2023/07/19 07:57:09;;;;;;;7.95;4.75;;;;;;;35.46;37.53;94859.06;5012009;28;20173;-83
2023/07/19 07:59:35;;;;;;;11.25;5.05;;;;;;;35.36;39.81;94862.44;5012291;28;20670;-83
2023/07/19 08:02:00;;;;;;;11.93;6.93;;;;;;;35.01;38.45;94843.47;5020002;28;20180;-86
2023/07/19 08:04:27;;;;;;;8.57;5.65;;;;;;;34.59;38.78;94843.53;5020366;28;20173;-83
2023/07/19 08:06:53;;;;;;;5.65;4.10;;;;;;;34.16;38.72;94850.91;5022767;28;20176;-83
2023/07/19 08:09:19;;;;;;;8.35;4.30;;;;;;;34.20;39.54;94864.63;5022922;28;20184;-81
2023/07/19 08:11:45;;;;;;;9.02;4.53;;;;;;;34.23;39.25;94844.78;5031940;28;20167;-86
2023/07/19 08:14:10;;;;;;;6.25;4.45;;;;;;;34.06;39.61;94855.00;5033224;28;20168;-82
2023/07/19 08:16:35;;;;;;;8.80;4.07;;;;;;;34.23;39.74;94828.38;5035675;28;20258;-80
2023/07/19 08:19:01;;;;;;;8.63;5.22;;;;;;;34.85;40.85;94851.03;5034143;28;20218;-81
2023/07/19 08:21:26;;;;;;;19.75;6.00;;;;;;;35.29;38.40;94854.88;5034212;28;20164;-81
2023/07/19 08:23:55;;;;;;;13.00;5.70;;;;;;;35.68;38.07;94849.19;5035278;28;20546;-83
2023/07/19 08:26:21;;;;;;;10.27;5.10;;;;;;;36.09;38.80;94859.13;5035567;28;20548;-83
2023/07/19 08:28:46;;;;;;;10.10;5.00;;;;;;;36.36;38.34;94851.66;5035225;28;20174;-83
2023/07/19 08:31:12;;;;;;;11.98;6.07;;;;;;;36.65;37.40;94855.47;5035050;28;20175;-83
2023/07/19 08:33:37;;;;;;;6.72;4.43;;;;;;;36.80;38.75;94854.47;5035001;28;20281;-82
2023/07/19 08:36:03;;;;;;;7.32;4.32;;;;;;;37.02;37.62;94852.69;5035051;28;20226;-82
2023/07/19 08:38:28;;;;;;;9.45;4.30;;;;;;;37.07;39.71;94860.59;5035360;28;20639;-82
2023/07/19 08:41:02;;;;;;;6.22;4.18;;;;;;;37.17;37.87;94864.63;5035130;28;20187;-83
2023/07/19 08:43:31;;;;;;;6.80;4.47;;;;;;;37.02;37.10;94847.97;5035122;28;20178;-83
2023/07/19 08:45:57;;;;;;;16.17;5.05;;;;;;;36.71;36.75;94842.22;5034881;28;20620;-83
2023/07/19 08:48:23;;;;;;;30.00;6.07;;;;;;;36.23;37.04;94837.41;5034806;28;20198;-83
2023/07/19 08:50:57;;;;;;;9.82;4.40;;;;;;;35.85;37.75;94824.78;5017086;28;20546;-82
2023/07/19 08:53:24;;;;;;;9.65;4.43;;;;;;;35.67;38.48;94831.16;5034870;28;20295;-83
2023/07/19 08:55:51;;;;;;;7.75;4.50;;;;;;;35.71;39.64;94821.84;5034679;28;20186;-81
2023/07/19 08:58:18;;;;;;;8.10;3.90;;;;;;;35.80;37.64;94800.47;5035218;28;20677;-82
2023/07/19 09:00:48;;;;;;;9.77;4.88;;;;;;;36.06;38.63;94824.25;5025685;28;20238;-82
2023/07/19 09:03:14;;;;;;;7.88;4.95;;;;;;;36.18;39.26;94814.97;5012608;28;20168;-81
2023/07/19 09:05:40;;;;;;;9.60;4.50;;;;;;;36.11;39.22;94804.72;5025929;28;20251;-86
2023/07/19 09:08:09;;;;;;;7.80;4.25;;;;;;;36.32;38.42;94815.16;5025668;28;20266;-80
2023/07/19 09:10:34;;;;;;;6.70;4.60;;;;;;;36.35;37.46;94811.66;5015133;28;20215;-81
2023/07/19 09:13:05;;;;;;;12.43;5.00;;;;;;;36.35;36.99;94810.88;5023376;28;20275;-81
2023/07/19 09:15:33;;;;;;;9.57;4.32;;;;;;;36.13;37.25;94779.66;5030959;28;20219;-84
2023/07/19 09:18:01;;;;;;;5.55;3.92;;;;;;;36.17;37.47;94802.41;5017777;28;20198;-81
2023/07/19 09:20:28;;;;;;;10.43;4.28;;;;;;;35.67;37.49;94790.06;5014638;28;20666;-82
2023/07/19 09:22:57;;;;;;;10.52;4.10;;;;;;;35.79;39.64;94793.41;5014677;28;20235;-81
2023/07/19 09:25:22;;;;;;;8.77;3.78;;;;;;;35.94;40.83;94788.84;5013425;28;20172;-81
2023/07/19 09:27:48;;;;;;;10.52;4.50;;;;;;;36.07;39.48;94803.09;5014259;28;20172;-82
2023/07/19 09:30:14;;;;;;;8.82;4.18;;;;;;;36.10;39.94;94800.41;5014535;28;20536;-83
2023/07/19 09:32:40;;;;;;;11.80;4.40;;;;;;;36.16;39.76;94796.16;5014062;28;20228;-81
2023/07/19 09:35:08;;;;;;;14.20;4.15;;;;;;;36.13;38.84;94802.41;5014320;28;20208;-81
2023/07/19 09:37:33;;;;;;;9.38;4.80;;;;;;;35.87;37.65;94784.09;5014503;28;20161;-83
2023/07/19 09:40:02;;;;;;;11.20;4.15;;;;;;;36.04;38.95;94798.38;5015431;28;20165;-82
2023/07/19 09:42:30;;;;;;;6.63;3.90;;;;;;;36.04;40.38;94788.19;5034582;28;20182;-82
2023/07/19 09:44:56;;;;;;;7.78;4.13;;;;;;;36.21;38.81;94789.56;5033822;28;20163;-83
2023/07/19 09:47:24;;;;;;;8.07;4.28;;;;;;;36.28;37.62;94795.94;5029110;28;20187;-83
2023/07/19 09:49:50;;;;;;;7.53;3.80;;;;;;;36.15;38.56;94767.13;5013642;28;20176;-83
2023/07/19 09:52:17;;;;;;;8.75;5.03;;;;;;;36.17;38.20;94761.28;4996295;28;20192;-82
2023/07/19 09:54:44;;;;;;;13.43;4.55;;;;;;;36.34;37.34;94781.84;5013644;28;20226;-81
2023/07/19 09:57:10;;;;;;;8.27;3.83;;;;;;;36.33;36.32;94778.31;5013785;28;20176;-81
2023/07/19 09:59:40;;;;;;;11.27;4.53;;;;;;;36.38;35.43;94778.00;5013783;28;20696;-82
2023/07/19 10:02:07;;;;;;;9.30;4.35;;;;;;;36.12;33.88;94764.38;4996102;28;20688;-81
2023/07/19 10:04:39;;;;;;;12.27;4.93;;;;;;;35.84;34.78;94756.63;5013692;28;20187;-83
2023/07/19 10:07:07;;;;;;;9.60;4.55;;;;;;;35.88;34.00;94762.94;5013871;28;20160;-82
2023/07/19 10:09:40;;;;;;;12.00;4.57;;;;;;;35.76;34.25;94750.28;5013801;28;20177;-82
2023/07/19 10:12:06;;;;;;;4.57;4.15;;;;;;;35.80;34.36;94766.78;5013537;28;20204;-83
2023/07/19 10:14:32;;;;;;;11.35;4.95;;;;;;;35.85;34.69;94763.69;5013526;28;20168;-83
2023/07/19 10:16:59;;;;;;;11.68;4.57;;;;;;;35.77;34.75;94765.56;5012918;28;20184;-84
2023/07/19 10:19:25;;;;;;;13.63;4.45;;;;;;;35.76;35.29;94755.75;4995225;28;20176;-84
2023/07/19 10:22:04;;;;;;;11.90;5.07;;;;;;;35.79;35.26;94748.75;4992995;28;20195;-83
2023/07/19 10:24:37;;;;;;;9.95;5.28;;;;;;;35.64;32.59;94755.97;5011537;28;20741;-85
2023/07/19 10:27:06;;;;;;;6.30;4.53;;;;;;;35.57;34.98;94750.41;4995675;28;20177;-85
2023/07/19 10:29:43;;;;;;;10.27;4.18;;;;;;;35.31;34.35;94703.91;4995462;28;20190;-85
2023/07/19 10:32:10;;;;;;;9.32;4.45;;;;;;;35.54;36.53;94738.25;5012989;28;20232;-84
2023/07/19 10:34:38;;;;;;;9.52;4.72;;;;;;;35.58;35.75;94734.75;5013055;28;20176;-83
2023/07/19 10:37:04;;;;;;;12.30;4.22;;;;;;;35.56;36.27;94729.63;5013021;28;20223;-82
2023/07/19 10:39:31;;;;;;;9.93;4.30;;;;;;;35.62;35.55;94741.06;5013277;28;20161;-83
2023/07/19 10:41:58;;;;;;;10.63;4.45;;;;;;;35.51;34.63;94736.25;5013293;28;20188;-82
2023/07/19 10:44:26;;;;;;;9.75;4.60;;;;;;;35.43;35.56;94720.88;5013035;28;20175;-83
2023/07/19 10:46:54;;;;;;;12.15;4.50;;;;;;;35.49;35.06;94737.78;5012886;28;20161;-82
2023/07/19 10:49:21;;;;;;;12.98;4.68;;;;;;;35.34;36.14;94733.28;5013076;28;20243;-83
2023/07/19 10:51:57;;;;;;;9.38;4.40;;;;;;;35.31;36.06;94737.56;5012838;28;20206;-82
2023/07/19 10:54:24;;;;;;;13.50;5.05;;;;;;;35.29;36.50;94730.88;5012865;28;20157;-83
2023/07/19 10:56:51;;;;;;;14.45;5.32;;;;;;;35.33;35.89;94737.19;5012896;28;20176;-82
2023/07/19 10:59:17;;;;;;;8.40;4.25;;;;;;;35.34;35.12;94736.03;5012710;28;20712;-83
2023/07/19 11:01:44;;;;;;;4.65;3.70;;;;;;;35.33;34.09;94739.91;4995027;28;20263;-84
2023/07/19 11:04:09;;;;;;;9.90;3.80;;;;;;;35.34;33.12;94738.75;5012684;28;20172;-85
2023/07/19 11:06:38;;;;;;;6.13;3.92;;;;;;;35.29;33.45;94722.66;5012805;28;20214;-85
2023/07/19 11:09:08;;;;;;;6.18;3.47;;;;;;;35.33;34.06;94731.69;4995080;28;20164;-84
2023/07/19 11:11:37;;;;;;;6.72;4.10;;;;;;;35.33;35.93;94716.06;5012582;28;20251;-84
2023/07/19 11:14:03;;;;;;;3.83;3.35;;;;;;;35.47;34.20;94723.66;4994912;28;20188;-84
2023/07/19 11:16:29;;;;;;;5.03;3.63;;;;;;;35.43;33.09;94720.88;5012587;28;20167;-84
2023/07/19 11:18:55;;;;;;;7.10;3.55;;;;;;;35.40;31.00;94715.34;5012536;28;20183;-84
2023/07/19 11:21:28;;;;;;;5.43;3.75;;;;;;;35.36;31.42;94718.06;5012441;28;20239;-83
2023/07/19 11:23:55;;;;;;;6.10;3.38;;;;;;;35.31;32.58;94717.59;5012452;28;20160;-84